Sylvan Grove, KS

8:56 AM CDT on June 24, 2017 (GMT -0500)
Postrock Highway | | Change Station

Elev 1522 ft 39.01 °N, 98.52 °W | Updated 6 minutes ago

Clear
Clear
66.2 °F
Feels Like 66.2 °F
N
1.0
Wind Variable Wind from ESE
Gusts 42.0 mph

Today
High -- | Low -- °F
--% Chance of Precip.
Yesterday
High -- | Low -- °F
Precip. -- in
Pressure 30.22 in
Visibility 10.0 miles
Clouds Clear
Dew Point 53 °F
Humidity 62%
Rainfall 0.00 in
Snow Depth Not available.
6:08 AM 9:03 PM
New Moon, 0% visible
METAR KRSL 241353Z AUTO 09005KT 10SM CLR 19/10 A3025 RMK AO2 SLP234 T01890100
Pressure 30.22 in
Visibility 10.0 miles
Clouds Clear
Dew Point 53 °F
Humidity 62%
Rainfall 0.00 in
Snow Depth Not available.
6:08 AM 9:03 PM
New Moon, 0% visible
METAR KRSL 241353Z AUTO 09005KT 10SM CLR 19/10 A3025 RMK AO2 SLP234 T01890100

Get Severe Weather Alerts

Thanks for signing up!

Be on the lookout for a verification email in your inbox.

You'll start receiving the daily forecast at 6 AM.

×

10-Day Weather Forecast

Almanac

Astronomy

Jun. 24, 2017 Rise Set
Actual Time
Civil Twilight
Nautical Twilight
Astronomical Twilight
Moon
Length of Visible Light
Length of Day
Tomorrow will be .
, % of the Moon is Illuminated

Today's Extremes

State Highs State Lows

Community

WunderPhotos

Category 6

Welcome to Category 6. This is the collective home for Weather Underground's featured writeups by Dr. Jeff Masters (right), Bob Henson (left), Chris Burt, and other regular contributors.

Nearby

Air Quality

  Air Quality AQ Index Pollutant
Not available.

Snow Depth

Station Depth Elevation

Earthquake Activity

City Distance Mag. Time & Date
Minimum magnitude displayed is 2.5.

Coastal Water Temperatures

Place Temperature

Stations

Nearby Weather Stations

Station Location Temp. Windchill Dew Point Humidity Wind Precip. Elev Updated Type
                   

Watches & Warnings

There are currently no watches in effect.